sensor_id;sensor_type;location;lat;lon;timestamp;pressure;altitude;pressure_sealevel;temperature;humidity
23118;BME280;11728;50.624;6.014;2023-05-09T00:02:00;98509.41;;;16.79;98.74
23118;BME280;11728;50.624;6.014;2023-05-09T00:07:20;98505.97;;;16.77;98.69
23118;BME280;11728;50.624;6.014;2023-05-09T00:12:41;98507.66;;;16.78;98.50
23118;BME280;11728;50.624;6.014;2023-05-09T00:18:03;98501.47;;;16.77;98.03
23118;BME280;11728;50.624;6.014;2023-05-09T00:23:24;98489.69;;;16.83;97.00
23118;BME280;11728;50.624;6.014;2023-05-09T00:28:44;98486.28;;;16.79;96.32
23118;BME280;11728;50.624;6.014;2023-05-09T00:34:05;98485.06;;;16.66;97.11
23118;BME280;11728;50.624;6.014;2023-05-09T00:39:26;98476.94;;;16.69;97.38
23118;BME280;11728;50.624;6.014;2023-05-09T00:44:47;98470.28;;;16.79;96.74
23118;BME280;11728;50.624;6.014;2023-05-09T00:50:08;98460.94;;;16.69;96.81
23118;BME280;11728;50.624;6.014;2023-05-09T00:55:29;98442.88;;;16.76;96.09
23118;BME280;11728;50.624;6.014;2023-05-09T01:00:50;98444.28;;;16.64;97.02
23118;BME280;11728;50.624;6.014;2023-05-09T01:17:30;98414.09;;;16.44;98.11
23118;BME280;11728;50.624;6.014;2023-05-09T01:28:33;98389.84;;;16.30;98.96
23118;BME280;11728;50.624;6.014;2023-05-09T01:33:57;98391.81;;;16.25;99.57
23118;BME280;11728;50.624;6.014;2023-05-09T01:39:20;98383.66;;;16.28;100.00
23118;BME280;11728;50.624;6.014;2023-05-09T01:44:43;98377.84;;;16.40;100.00
23118;BME280;11728;50.624;6.014;2023-05-09T01:50:05;98374.22;;;16.41;99.81
23118;BME280;11728;50.624;6.014;2023-05-09T01:55:30;98377.31;;;16.32;100.00
23118;BME280;11728;50.624;6.014;2023-05-09T02:00:52;98372.00;;;16.32;100.00
23118;BME280;11728;50.624;6.014;2023-05-09T02:06:13;98363.44;;;16.44;100.00
23118;BME280;11728;50.624;6.014;2023-05-09T02:11:35;98359.84;;;16.45;100.00
23118;BME280;11728;50.624;6.014;2023-05-09T02:16:56;98373.81;;;16.50;100.00
23118;BME280;11728;50.624;6.014;2023-05-09T02:22:17;98377.28;;;16.52;100.00
23118;BME280;11728;50.624;6.014;2023-05-09T02:27:39;98370.03;;;16.55;100.00
23118;BME280;11728;50.624;6.014;2023-05-09T02:33:02;98364.03;;;16.50;100.00
23118;BME280;11728;50.624;6.014;2023-05-09T02:38:24;98360.66;;;16.47;100.00
23118;BME280;11728;50.624;6.014;2023-05-09T02:43:46;98361.69;;;16.43;100.00
23118;BME280;11728;50.624;6.014;2023-05-09T02:49:07;98371.97;;;16.52;100.00
23118;BME280;11728;50.624;6.014;2023-05-09T02:54:28;98361.63;;;16.44;100.00
23118;BME280;11728;50.624;6.014;2023-05-09T02:59:49;98361.25;;;16.33;100.00
23118;BME280;11728;50.624;6.014;2023-05-09T03:05:10;98363.06;;;16.33;100.00
23118;BME280;11728;50.624;6.014;2023-05-09T03:10:30;98352.59;;;16.28;100.00
23118;BME280;11728;50.624;6.014;2023-05-09T03:15:51;98345.06;;;16.18;100.00
23118;BME280;11728;50.624;6.014;2023-05-09T03:21:12;98338.91;;;16.16;100.00
23118;BME280;11728;50.624;6.014;2023-05-09T03:26:33;98332.38;;;16.23;100.00
23118;BME280;11728;50.624;6.014;2023-05-09T03:31:56;98326.81;;;16.29;100.00
23118;BME280;11728;50.624;6.014;2023-05-09T03:37:17;98307.31;;;16.27;100.00
23118;BME280;11728;50.624;6.014;2023-05-09T03:42:38;98308.88;;;16.13;100.00
23118;BME280;11728;50.624;6.014;2023-05-09T03:47:58;98309.00;;;16.10;100.00
23118;BME280;11728;50.624;6.014;2023-05-09T03:53:19;98315.44;;;16.04;100.00
23118;BME280;11728;50.624;6.014;2023-05-09T03:58:40;98317.53;;;15.98;100.00
23118;BME280;11728;50.624;6.014;2023-05-09T04:04:01;98305.97;;;15.99;100.00
23118;BME280;11728;50.624;6.014;2023-05-09T04:09:21;98312.94;;;15.81;100.00
23118;BME280;11728;50.624;6.014;2023-05-09T04:14:42;98306.94;;;15.76;100.00
23118;BME280;11728;50.624;6.014;2023-05-09T04:20:04;98312.72;;;15.86;100.00
23118;BME280;11728;50.624;6.014;2023-05-09T04:25:27;98302.41;;;15.78;100.00
23118;BME280;11728;50.624;6.014;2023-05-09T04:30:49;98306.13;;;15.74;100.00
23118;BME280;11728;50.624;6.014;2023-05-09T04:36:10;98300.94;;;15.71;100.00
23118;BME280;11728;50.624;6.014;2023-05-09T04:41:31;98303.53;;;15.73;100.00
23118;BME280;11728;50.624;6.014;2023-05-09T04:46:52;98304.88;;;15.83;100.00
23118;BME280;11728;50.624;6.014;2023-05-09T04:52:14;98303.50;;;15.94;100.00
23118;BME280;11728;50.624;6.014;2023-05-09T04:57:35;98292.56;;;16.00;100.00
23118;BME280;11728;50.624;6.014;2023-05-09T05:02:55;98281.50;;;15.89;100.00
23118;BME280;11728;50.624;6.014;2023-05-09T05:08:16;98273.50;;;15.89;100.00
23118;BME280;11728;50.624;6.014;2023-05-09T05:13:37;98273.09;;;15.98;100.00
23118;BME280;11728;50.624;6.014;2023-05-09T05:18:58;98249.38;;;16.12;100.00
23118;BME280;11728;50.624;6.014;2023-05-09T05:24:18;98247.22;;;16.20;100.00
23118;BME280;11728;50.624;6.014;2023-05-09T05:29:39;98241.31;;;16.33;99.40
23118;BME280;11728;50.624;6.014;2023-05-09T05:35:00;98242.31;;;16.31;98.93
23118;BME280;11728;50.624;6.014;2023-05-09T05:40:22;98236.50;;;16.41;97.62
23118;BME280;11728;50.624;6.014;2023-05-09T05:45:42;98224.53;;;16.50;96.37
23118;BME280;11728;50.624;6.014;2023-05-09T05:51:03;98232.47;;;16.70;95.73
23118;BME280;11728;50.624;6.014;2023-05-09T05:56:24;98214.94;;;16.99;94.28
23118;BME280;11728;50.624;6.014;2023-05-09T06:01:45;98209.56;;;17.18;93.01
23118;BME280;11728;50.624;6.014;2023-05-09T06:07:06;98207.59;;;17.40;91.04
23118;BME280;11728;50.624;6.014;2023-05-09T06:12:27;98199.09;;;17.49;90.48
23118;BME280;11728;50.624;6.014;2023-05-09T06:17:48;98193.50;;;17.53;89.49
23118;BME280;11728;50.624;6.014;2023-05-09T06:23:09;98170.34;;;17.54;88.81
23118;BME280;11728;50.624;6.014;2023-05-09T06:28:29;98173.09;;;17.52;89.31
23118;BME280;11728;50.624;6.014;2023-05-09T06:33:50;98173.66;;;17.59;89.40
23118;BME280;11728;50.624;6.014;2023-05-09T06:39:11;98178.47;;;17.84;88.90
23118;BME280;11728;50.624;6.014;2023-05-09T06:44:32;98171.41;;;18.16;88.92
23118;BME280;11728;50.624;6.014;2023-05-09T06:49:52;98160.94;;;18.44;88.86
23118;BME280;11728;50.624;6.014;2023-05-09T06:55:13;98158.66;;;18.98;87.71
23118;BME280;11728;50.624;6.014;2023-05-09T07:00:34;98149.59;;;19.59;84.90
23118;BME280;11728;50.624;6.014;2023-05-09T07:05:55;98141.06;;;20.23;82.41
23118;BME280;11728;50.624;6.014;2023-05-09T07:11:18;98136.75;;;20.21;80.54
23118;BME280;11728;50.624;6.014;2023-05-09T07:16:39;98121.03;;;19.87;79.79
23118;BME280;11728;50.624;6.014;2023-05-09T07:21:59;98120.63;;;19.65;79.87
23118;BME280;11728;50.624;6.014;2023-05-09T07:27:20;98105.59;;;19.63;79.60
23118;BME280;11728;50.624;6.014;2023-05-09T07:32:41;98110.19;;;19.75;78.84
23118;BME280;11728;50.624;6.014;2023-05-09T07:38:01;98112.16;;;20.01;77.82
23118;BME280;11728;50.624;6.014;2023-05-09T07:43:22;98107.53;;;20.16;77.54
23118;BME280;11728;50.624;6.014;2023-05-09T07:48:43;98107.63;;;20.29;76.69
23118;BME280;11728;50.624;6.014;2023-05-09T07:54:04;98092.59;;;20.26;76.75
23118;BME280;11728;50.624;6.014;2023-05-09T07:59:25;98092.41;;;20.29;76.78
23118;BME280;11728;50.624;6.014;2023-05-09T08:04:45;98079.38;;;20.23;75.48
23118;BME280;11728;50.624;6.014;2023-05-09T08:10:08;98081.31;;;20.08;73.96
23118;BME280;11728;50.624;6.014;2023-05-09T08:15:29;98071.56;;;20.07;74.47
23118;BME280;11728;50.624;6.014;2023-05-09T08:20:50;98061.06;;;20.30;73.92
23118;BME280;11728;50.624;6.014;2023-05-09T08:26:11;98046.69;;;20.31;72.72
23118;BME280;11728;50.624;6.014;2023-05-09T08:31:32;98041.03;;;20.35;72.02
23118;BME280;11728;50.624;6.014;2023-05-09T08:36:52;98050.88;;;20.61;71.73
23118;BME280;11728;50.624;6.014;2023-05-09T08:42:14;98037.63;;;20.72;71.78
23118;BME280;11728;50.624;6.014;2023-05-09T08:47:38;98028.44;;;20.76;72.44
23118;BME280;11728;50.624;6.014;2023-05-09T08:52:59;98025.34;;;20.82;72.11
23118;BME280;11728;50.624;6.014;2023-05-09T08:58:20;98016.47;;;21.06;71.52
23118;BME280;11728;50.624;6.014;2023-05-09T09:03:42;98006.63;;;21.44;70.09
23118;BME280;11728;50.624;6.014;2023-05-09T09:09:07;97990.44;;;23.00;66.50
23118;BME280;11728;50.624;6.014;2023-05-09T09:14:30;97983.53;;;23.30;63.18
23118;BME280;11728;50.624;6.014;2023-05-09T09:19:55;97987.88;;;22.98;63.15
23118;BME280;11728;50.624;6.014;2023-05-09T09:25:18;97979.84;;;22.86;63.59
23118;BME280;11728;50.624;6.014;2023-05-09T09:30:43;97974.16;;;22.67;61.16
23118;BME280;11728;50.624;6.014;2023-05-09T09:36:04;97970.44;;;22.57;60.26
23118;BME280;11728;50.624;6.014;2023-05-09T09:41:36;97962.41;;;22.45;59.94
23118;BME280;11728;50.624;6.014;2023-05-09T09:46:57;97961.88;;;21.80;61.57
23118;BME280;11728;50.624;6.014;2023-05-09T09:52:24;97964.19;;;21.97;61.13
23118;BME280;11728;50.624;6.014;2023-05-09T09:57:45;97960.63;;;21.36;62.85
23118;BME280;11728;50.624;6.014;2023-05-09T10:03:13;97947.94;;;21.01;63.94
23118;BME280;11728;50.624;6.014;2023-05-09T10:08:35;97949.00;;;20.86;64.60
23118;BME280;11728;50.624;6.014;2023-05-09T10:13:56;97946.44;;;20.97;65.12
23118;BME280;11728;50.624;6.014;2023-05-09T10:19:18;97929.56;;;20.95;65.73
23118;BME280;11728;50.624;6.014;2023-05-09T10:24:50;97930.13;;;20.61;66.42
23118;BME280;11728;50.624;6.014;2023-05-09T10:30:17;97926.94;;;20.69;67.02
23118;BME280;11728;50.624;6.014;2023-05-09T10:35:45;97927.28;;;21.01;65.24
23118;BME280;11728;50.624;6.014;2023-05-09T10:41:07;97913.38;;;20.70;66.35
23118;BME280;11728;50.624;6.014;2023-05-09T10:46:28;97907.59;;;20.64;66.41
23118;BME280;11728;50.624;6.014;2023-05-09T10:51:49;97908.66;;;20.49;66.75
23118;BME280;11728;50.624;6.014;2023-05-09T10:57:11;97900.16;;;20.42;67.43
23118;BME280;11728;50.624;6.014;2023-05-09T11:02:32;97906.50;;;20.15;68.52
23118;BME280;11728;50.624;6.014;2023-05-09T11:08:24;97894.47;;;20.08;68.41
23118;BME280;11728;50.624;6.014;2023-05-09T11:13:45;97885.03;;;19.89;69.35
23118;BME280;11728;50.624;6.014;2023-05-09T11:19:07;97886.38;;;19.96;69.99
23118;BME280;11728;50.624;6.014;2023-05-09T11:24:30;97879.44;;;20.06;70.36
23118;BME280;11728;50.624;6.014;2023-05-09T11:29:57;97874.59;;;19.84;71.62
23118;BME280;11728;50.624;6.014;2023-05-09T11:35:19;97870.88;;;19.46;73.20
23118;BME280;11728;50.624;6.014;2023-05-09T11:40:40;97870.91;;;19.32;74.83
23118;BME280;11728;50.624;6.014;2023-05-09T11:46:02;97859.94;;;19.23;75.83
23118;BME280;11728;50.624;6.014;2023-05-09T11:51:23;97857.97;;;19.53;75.79
23118;BME280;11728;50.624;6.014;2023-05-09T11:56:44;97845.84;;;19.74;75.85
23118;BME280;11728;50.624;6.014;2023-05-09T12:02:05;97844.75;;;19.64;77.19
23118;BME280;11728;50.624;6.014;2023-05-09T12:07:26;97833.00;;;19.79;77.10
23118;BME280;11728;50.624;6.014;2023-05-09T12:12:49;97830.31;;;19.79;76.69
23118;BME280;11728;50.624;6.014;2023-05-09T12:18:10;97827.44;;;19.82;77.55
23118;BME280;11728;50.624;6.014;2023-05-09T12:23:34;97813.25;;;19.80;76.97
23118;BME280;11728;50.624;6.014;2023-05-09T12:28:55;97815.41;;;19.75;77.50
23118;BME280;11728;50.624;6.014;2023-05-09T12:34:16;97806.28;;;19.51;78.30
23118;BME280;11728;50.624;6.014;2023-05-09T12:39:37;97806.41;;;19.49;78.44
23118;BME280;11728;50.624;6.014;2023-05-09T12:45:00;97798.56;;;19.46;78.70
23118;BME280;11728;50.624;6.014;2023-05-09T12:50:21;97794.47;;;19.41;79.12
23118;BME280;11728;50.624;6.014;2023-05-09T12:55:42;97793.88;;;19.50;79.62
23118;BME280;11728;50.624;6.014;2023-05-09T13:01:04;97784.31;;;19.46;79.34
23118;BME280;11728;50.624;6.014;2023-05-09T13:06:25;97792.63;;;19.15;80.24
23118;BME280;11728;50.624;6.014;2023-05-09T13:11:46;97784.44;;;18.62;81.35
23118;BME280;11728;50.624;6.014;2023-05-09T13:17:07;97776.78;;;18.56;82.36
23118;BME280;11728;50.624;6.014;2023-05-09T13:22:28;97766.97;;;18.57;82.74
23118;BME280;11728;50.624;6.014;2023-05-09T13:27:48;97765.53;;;18.52;83.72
23118;BME280;11728;50.624;6.014;2023-05-09T13:33:10;97761.91;;;18.52;83.83
23118;BME280;11728;50.624;6.014;2023-05-09T13:38:31;97754.34;;;18.59;84.45
23118;BME280;11728;50.624;6.014;2023-05-09T13:43:56;97748.69;;;18.63;84.56
23118;BME280;11728;50.624;6.014;2023-05-09T13:49:16;97734.94;;;18.69;84.54
23118;BME280;11728;50.624;6.014;2023-05-09T13:54:39;97737.25;;;18.75;84.59
23118;BME280;11728;50.624;6.014;2023-05-09T13:59:59;97737.06;;;18.64;85.57
23118;BME280;11728;50.624;6.014;2023-05-09T14:05:20;97724.44;;;18.66;86.58
23118;BME280;11728;50.624;6.014;2023-05-09T14:10:42;97722.59;;;18.81;86.66
23118;BME280;11728;50.624;6.014;2023-05-09T14:16:05;97710.84;;;18.83;86.64
23118;BME280;11728;50.624;6.014;2023-05-09T14:21:26;97707.50;;;18.66;87.01
23118;BME280;11728;50.624;6.014;2023-05-09T14:26:46;97696.84;;;18.52;87.76
23118;BME280;11728;50.624;6.014;2023-05-09T14:32:07;97695.81;;;18.41;88.47
23118;BME280;11728;50.624;6.014;2023-05-09T14:37:32;97698.56;;;17.97;89.57
23118;BME280;11728;50.624;6.014;2023-05-09T14:42:52;97687.06;;;17.68;90.50
23118;BME280;11728;50.624;6.014;2023-05-09T14:48:13;97676.31;;;17.40;91.24
23118;BME280;11728;50.624;6.014;2023-05-09T14:53:34;97669.78;;;17.14;91.95
23118;BME280;11728;50.624;6.014;2023-05-09T14:59:01;97673.53;;;16.96;92.24
23118;BME280;11728;50.624;6.014;2023-05-09T15:04:23;97680.22;;;17.03;92.97
23118;BME280;11728;50.624;6.014;2023-05-09T15:09:47;97671.69;;;17.12;93.09
23118;BME280;11728;50.624;6.014;2023-05-09T15:15:18;97670.91;;;17.10;93.70
23118;BME280;11728;50.624;6.014;2023-05-09T15:20:40;97659.09;;;17.14;93.66
23118;BME280;11728;50.624;6.014;2023-05-09T15:26:01;97655.66;;;17.28;92.82
23118;BME280;11728;50.624;6.014;2023-05-09T15:31:21;97654.94;;;17.24;93.13
23118;BME280;11728;50.624;6.014;2023-05-09T15:36:43;97657.13;;;17.33;93.05
23118;BME280;11728;50.624;6.014;2023-05-09T15:42:04;97644.56;;;17.49;92.97
23118;BME280;11728;50.624;6.014;2023-05-09T15:47:26;97639.41;;;17.46;93.32
23118;BME280;11728;50.624;6.014;2023-05-09T15:52:47;97639.41;;;17.46;93.35
23118;BME280;11728;50.624;6.014;2023-05-09T15:58:08;97634.56;;;17.53;93.17
23118;BME280;11728;50.624;6.014;2023-05-09T16:03:30;97636.16;;;17.41;93.45
23118;BME280;11728;50.624;6.014;2023-05-09T16:08:52;97625.69;;;16.93;94.40
23118;BME280;11728;50.624;6.014;2023-05-09T16:14:13;97635.63;;;16.61;94.78
23118;BME280;11728;50.624;6.014;2023-05-09T16:19:34;97629.88;;;16.53;94.42
23118;BME280;11728;50.624;6.014;2023-05-09T16:24:55;97621.88;;;16.37;95.05
23118;BME280;11728;50.624;6.014;2023-05-09T16:30:16;97625.75;;;16.32;95.65
23118;BME280;11728;50.624;6.014;2023-05-09T16:35:37;97622.19;;;16.16;95.88
23118;BME280;11728;50.624;6.014;2023-05-09T16:40:58;97624.56;;;16.05;95.93
23118;BME280;11728;50.624;6.014;2023-05-09T16:46:19;97619.59;;;15.99;96.13
23118;BME280;11728;50.624;6.014;2023-05-09T16:51:40;97621.72;;;15.93;95.97
23118;BME280;11728;50.624;6.014;2023-05-09T16:57:01;97629.94;;;15.56;95.67
23118;BME280;11728;50.624;6.014;2023-05-09T17:02:22;97629.84;;;15.25;95.65
23118;BME280;11728;50.624;6.014;2023-05-09T17:07:43;97628.31;;;15.03;96.10
23118;BME280;11728;50.624;6.014;2023-05-09T17:13:04;97633.38;;;14.90;96.08
23118;BME280;11728;50.624;6.014;2023-05-09T17:18:27;97625.63;;;14.86;96.19
23118;BME280;11728;50.624;6.014;2023-05-09T17:23:48;97630.34;;;14.81;96.20
23118;BME280;11728;50.624;6.014;2023-05-09T17:29:09;97629.84;;;14.73;96.33
23118;BME280;11728;50.624;6.014;2023-05-09T17:34:30;97632.72;;;14.68;96.62
23118;BME280;11728;50.624;6.014;2023-05-09T17:39:51;97628.91;;;14.74;96.47
23118;BME280;11728;50.624;6.014;2023-05-09T17:45:12;97627.19;;;14.73;96.39
23118;BME280;11728;50.624;6.014;2023-05-09T17:50:33;97621.81;;;14.74;96.35
23118;BME280;11728;50.624;6.014;2023-05-09T17:55:55;97615.50;;;14.77;96.66
23118;BME280;11728;50.624;6.014;2023-05-09T18:01:16;97616.91;;;14.84;96.77
23118;BME280;11728;50.624;6.014;2023-05-09T18:06:37;97615.00;;;14.86;96.87
23118;BME280;11728;50.624;6.014;2023-05-09T18:11:58;97622.03;;;14.87;96.71
23118;BME280;11728;50.624;6.014;2023-05-09T18:17:18;97614.88;;;14.89;96.72
23118;BME280;11728;50.624;6.014;2023-05-09T18:22:39;97614.25;;;14.84;96.91
23118;BME280;11728;50.624;6.014;2023-05-09T18:28:00;97619.16;;;14.74;96.90
23118;BME280;11728;50.624;6.014;2023-05-09T18:33:23;97619.13;;;14.58;97.30
23118;BME280;11728;50.624;6.014;2023-05-09T18:38:45;97615.91;;;14.51;98.04
23118;BME280;11728;50.624;6.014;2023-05-09T18:44:07;97618.00;;;14.45;97.86
23118;BME280;11728;50.624;6.014;2023-05-09T18:49:28;97624.69;;;14.35;98.49
23118;BME280;11728;50.624;6.014;2023-05-09T18:54:49;97621.16;;;14.34;98.50
23118;BME280;11728;50.624;6.014;2023-05-09T19:00:10;97618.06;;;14.43;98.02
23118;BME280;11728;50.624;6.014;2023-05-09T19:05:32;97608.38;;;14.42;98.67
23118;BME280;11728;50.624;6.014;2023-05-09T19:10:52;97618.00;;;14.45;98.86
23118;BME280;11728;50.624;6.014;2023-05-09T19:16:14;97624.31;;;14.42;98.53
23118;BME280;11728;50.624;6.014;2023-05-09T19:21:36;97620.59;;;14.46;98.62
23118;BME280;11728;50.624;6.014;2023-05-09T19:26:56;97621.66;;;14.42;98.61
23118;BME280;11728;50.624;6.014;2023-05-09T19:32:18;97621.03;;;14.37;99.34
23118;BME280;11728;50.624;6.014;2023-05-09T19:37:39;97632.59;;;14.36;99.76
23118;BME280;11728;50.624;6.014;2023-05-09T19:43:00;97633.25;;;14.41;99.61
23118;BME280;11728;50.624;6.014;2023-05-09T19:48:21;97631.66;;;14.37;99.75
23118;BME280;11728;50.624;6.014;2023-05-09T19:53:42;97628.91;;;14.39;99.85
23118;BME280;11728;50.624;6.014;2023-05-09T19:59:02;97628.38;;;14.32;100.00
23118;BME280;11728;50.624;6.014;2023-05-09T20:04:24;97636.06;;;14.20;100.00
23118;BME280;11728;50.624;6.014;2023-05-09T20:09:44;97638.13;;;14.13;100.00
23118;BME280;11728;50.624;6.014;2023-05-09T20:15:06;97640.94;;;14.10;100.00
23118;BME280;11728;50.624;6.014;2023-05-09T20:20:28;97635.94;;;14.03;100.00
23118;BME280;11728;50.624;6.014;2023-05-09T20:25:51;97635.09;;;14.02;100.00
23118;BME280;11728;50.624;6.014;2023-05-09T20:31:12;97629.34;;;13.93;100.00
23118;BME280;11728;50.624;6.014;2023-05-09T20:36:33;97628.34;;;13.95;100.00
23118;BME280;11728;50.624;6.014;2023-05-09T20:41:53;97631.63;;;14.00;100.00
23118;BME280;11728;50.624;6.014;2023-05-09T20:47:15;97629.91;;;13.99;100.00
23118;BME280;11728;50.624;6.014;2023-05-09T20:52:36;97641.84;;;13.91;100.00
23118;BME280;11728;50.624;6.014;2023-05-09T20:57:57;97640.09;;;13.90;100.00
23118;BME280;11728;50.624;6.014;2023-05-09T21:03:18;97641.13;;;13.87;100.00
23118;BME280;11728;50.624;6.014;2023-05-09T21:08:39;97636.81;;;13.85;100.00
23118;BME280;11728;50.624;6.014;2023-05-09T21:14:02;97638.59;;;13.84;100.00
23118;BME280;11728;50.624;6.014;2023-05-09T21:19:23;97633.94;;;13.89;100.00
23118;BME280;11728;50.624;6.014;2023-05-09T21:24:44;97635.44;;;13.95;100.00
23118;BME280;11728;50.624;6.014;2023-05-09T21:30:05;97631.94;;;13.94;100.00
23118;BME280;11728;50.624;6.014;2023-05-09T21:35:26;97635.44;;;13.95;100.00
23118;BME280;11728;50.624;6.014;2023-05-09T21:40:49;97633.66;;;13.95;100.00
23118;BME280;11728;50.624;6.014;2023-05-09T21:46:10;97628.47;;;13.92;100.00
23118;BME280;11728;50.624;6.014;2023-05-09T21:51:31;97623.75;;;13.99;100.00
23118;BME280;11728;50.624;6.014;2023-05-09T21:56:52;97625.28;;;14.04;100.00
23118;BME280;11728;50.624;6.014;2023-05-09T22:02:13;97622.63;;;14.04;100.00
23118;BME280;11728;50.624;6.014;2023-05-09T22:07:34;97629.50;;;14.08;100.00
23118;BME280;11728;50.624;6.014;2023-05-09T22:12:55;97627.66;;;14.10;100.00
23118;BME280;11728;50.624;6.014;2023-05-09T22:18:16;97613.28;;;14.14;100.00
23118;BME280;11728;50.624;6.014;2023-05-09T22:23:37;97616.59;;;14.19;100.00
23118;BME280;11728;50.624;6.014;2023-05-09T22:28:57;97614.59;;;14.24;100.00
23118;BME280;11728;50.624;6.014;2023-05-09T22:34:18;97617.03;;;14.29;100.00
23118;BME280;11728;50.624;6.014;2023-05-09T22:39:39;97615.31;;;14.28;100.00
23118;BME280;11728;50.624;6.014;2023-05-09T22:45:00;97611.94;;;14.24;100.00
23118;BME280;11728;50.624;6.014;2023-05-09T22:50:21;97617.69;;;14.15;100.00
23118;BME280;11728;50.624;6.014;2023-05-09T22:55:42;97615.03;;;14.15;100.00
23118;BME280;11728;50.624;6.014;2023-05-09T23:01:03;97613.47;;;14.11;100.00
23118;BME280;11728;50.624;6.014;2023-05-09T23:06:24;97620.72;;;14.06;100.00
23118;BME280;11728;50.624;6.014;2023-05-09T23:11:44;97613.97;;;13.99;100.00
23118;BME280;11728;50.624;6.014;2023-05-09T23:17:05;97621.31;;;13.94;100.00
23118;BME280;11728;50.624;6.014;2023-05-09T23:22:26;97619.44;;;13.78;100.00
23118;BME280;11728;50.624;6.014;2023-05-09T23:27:47;97620.28;;;13.79;100.00
23118;BME280;11728;50.624;6.014;2023-05-09T23:33:07;97618.66;;;13.76;100.00
23118;BME280;11728;50.624;6.014;2023-05-09T23:38:28;97628.47;;;13.74;100.00
23118;BME280;11728;50.624;6.014;2023-05-09T23:43:49;97637.78;;;13.82;100.00
23118;BME280;11728;50.624;6.014;2023-05-09T23:49:10;97632.47;;;13.82;100.00
23118;BME280;11728;50.624;6.014;2023-05-09T23:54:32;97626.19;;;13.85;100.00
23118;BME280;11728;50.624;6.014;2023-05-09T23:59:53;97623.75;;;13.81;100.00
